createdAt,value
2016-09-07T00:00:06.455Z,1009.41
2016-09-07T00:00:32.964Z,1009.56
2016-09-07T00:00:57.219Z,1009.58
2016-09-07T00:01:18.958Z,1009.51
2016-09-07T00:01:40.689Z,1009.34
2016-09-07T00:02:02.432Z,1009.42
2016-09-07T00:02:24.236Z,1009.46
2016-09-07T00:02:45.971Z,1009.26
2016-09-07T00:03:39.578Z,1009.34
2016-09-07T00:04:01.358Z,1009.61
2016-09-07T00:04:24.118Z,1009.44
2016-09-07T00:04:48.611Z,1009.53
2016-09-07T00:05:10.356Z,1009.32
2016-09-07T00:05:32.116Z,1009.29
2016-09-07T00:05:58.612Z,1009.65
2016-09-07T00:06:20.373Z,1009.48
2016-09-07T00:07:20.682Z,1009.64
2016-09-07T00:07:42.426Z,1009.50
2016-09-07T00:08:04.190Z,1009.60
2016-09-07T00:08:25.949Z,1009.67
2016-09-07T00:08:47.696Z,1009.65
2016-09-07T00:09:09.437Z,1009.40
2016-09-07T00:09:35.956Z,1009.29
2016-09-07T00:09:57.693Z,1009.24
2016-09-07T00:10:19.434Z,1009.45
2016-09-07T00:10:41.182Z,1009.52
2016-09-07T00:11:02.915Z,1009.71
2016-09-07T00:11:24.653Z,1009.45
2016-09-07T00:11:46.400Z,1009.47
2016-09-07T00:12:08.138Z,1009.28
2016-09-07T00:12:29.909Z,1009.44
2016-09-07T00:12:51.643Z,1009.24
2016-09-07T00:13:13.399Z,1009.37
2016-09-07T00:13:39.748Z,1009.50
2016-09-07T00:14:04.167Z,1009.28
2016-09-07T00:14:26.049Z,1009.43
2016-09-07T00:14:52.785Z,1009.58
2016-09-07T00:15:14.689Z,1009.29
2016-09-07T00:15:36.423Z,1009.52
2016-09-07T00:16:02.909Z,1009.52
2016-09-07T00:16:28.193Z,1009.41
2016-09-07T00:16:49.980Z,1009.43
2016-09-07T00:17:40.861Z,1009.54
2016-09-07T00:18:07.191Z,1009.50
2016-09-07T00:18:33.725Z,1009.59
2016-09-07T00:18:56.471Z,1009.12
2016-09-07T00:19:21.067Z,1009.28
2016-09-07T00:19:42.813Z,1009.54
2016-09-07T00:20:04.628Z,1009.48
2016-09-07T00:20:31.337Z,1009.24
2016-09-07T00:20:53.102Z,1009.25
2016-09-07T00:21:14.897Z,1009.44
2016-09-07T00:21:36.756Z,1009.31
2016-09-07T00:22:03.271Z,1009.55
2016-09-07T00:22:25.084Z,1009.35
2016-09-07T00:22:58.709Z,1009.21
2016-09-07T00:23:20.453Z,1009.61
2016-09-07T00:23:42.186Z,1009.61
2016-09-07T00:24:06.686Z,1009.24
2016-09-07T00:24:33.191Z,1009.11
2016-09-07T00:24:55.195Z,1009.27
2016-09-07T00:25:17.185Z,1009.44
2016-09-07T00:26:05.435Z,1009.34
2016-09-07T00:26:27.175Z,1009.42
2016-09-07T00:26:51.559Z,1009.38
2016-09-07T00:27:17.387Z,1009.21
2016-09-07T00:27:44.218Z,1009.12
2016-09-07T00:28:05.992Z,1009.44
2016-09-07T00:28:27.725Z,1009.53
2016-09-07T00:28:49.476Z,1009.45
2016-09-07T00:29:14.063Z,1009.32
2016-09-07T00:29:35.875Z,1009.36
2016-09-07T00:29:57.652Z,1009.32
2016-09-07T00:30:50.670Z,1009.12
2016-09-07T00:31:13.418Z,1009.24
2016-09-07T00:31:39.953Z,1009.46
2016-09-07T00:32:01.805Z,1009.41
2016-09-07T00:32:23.610Z,1009.22
2016-09-07T00:32:45.384Z,1009.50
2016-09-07T00:33:10.030Z,1009.48
2016-09-07T00:33:31.770Z,1009.64
2016-09-07T00:33:53.539Z,1009.43
2016-09-07T00:34:15.300Z,1009.39
2016-09-07T00:34:41.805Z,1009.67
2016-09-07T00:35:03.546Z,1009.48
2016-09-07T00:35:25.280Z,1009.34
2016-09-07T00:35:51.787Z,1009.23
2016-09-07T00:36:13.531Z,1009.33
2016-09-07T00:37:01.786Z,1009.61
2016-09-07T00:37:28.302Z,1009.45
2016-09-07T00:37:57.530Z,1009.79
2016-09-07T00:38:20.293Z,1009.41
2016-09-07T00:38:46.794Z,1009.19
2016-09-07T00:39:08.535Z,1009.40
2016-09-07T00:39:30.280Z,1009.17
2016-09-07T00:39:56.606Z,1009.42
2016-09-07T00:40:18.350Z,1009.20
2016-09-07T00:40:40.094Z,1009.38
2016-09-07T00:41:01.828Z,1009.53
2016-09-07T00:41:26.471Z,1009.59
2016-09-07T00:41:51.834Z,1009.37
2016-09-07T00:42:13.609Z,1009.21
2016-09-07T00:42:35.336Z,1009.37
2016-09-07T00:42:57.089Z,1009.36
2016-09-07T00:43:23.584Z,1009.17
2016-09-07T00:43:50.542Z,1009.37
2016-09-07T00:44:38.939Z,1009.25
2016-09-07T00:45:05.499Z,1008.99
2016-09-07T00:45:33.028Z,1009.25
2016-09-07T00:45:54.866Z,1009.11
2016-09-07T00:46:21.566Z,1009.47
2016-09-07T00:46:48.906Z,1009.43
2016-09-07T00:47:42.936Z,1009.05
2016-09-07T00:48:04.690Z,1009.35
2016-09-07T00:48:29.399Z,1009.19
2016-09-07T00:48:55.908Z,1009.56
2016-09-07T00:49:17.709Z,1009.13
2016-09-07T00:49:47.322Z,1009.26
2016-09-07T00:50:09.047Z,1009.49
2016-09-07T00:50:40.366Z,1009.16
2016-09-07T00:51:07.985Z,1009.30
2016-09-07T00:51:35.838Z,1009.25
2016-09-07T00:52:34.087Z,1008.97
2016-09-07T00:53:08.374Z,1009.12
2016-09-07T00:53:40.241Z,1009.17
2016-09-07T00:54:09.595Z,1009.12
2016-09-07T00:54:38.344Z,1009.14
2016-09-07T00:56:05.090Z,1009.32
2016-09-07T00:56:28.184Z,1009.11
2016-09-07T00:56:54.776Z,1009.16
2016-09-07T00:57:45.940Z,1009.08
2016-09-07T00:58:07.688Z,1009.33
2016-09-07T00:58:29.486Z,1009.24
2016-09-07T00:58:51.243Z,1009.25
2016-09-07T00:59:12.973Z,1009.14
2016-09-07T00:59:34.710Z,1009.23
2016-09-07T00:59:56.558Z,1009.08
2016-09-07T01:00:21.252Z,1009.32
2016-09-07T01:00:44.009Z,1008.97
2016-09-07T01:01:05.809Z,1009.22
2016-09-07T01:01:32.321Z,1009.27
2016-09-07T01:01:54.072Z,1009.14
2016-09-07T01:02:15.813Z,1008.94
2016-09-07T01:02:40.273Z,1009.02
2016-09-07T01:03:02.036Z,1008.79
2016-09-07T01:03:23.805Z,1008.94
2016-09-07T01:03:45.544Z,1008.99
2016-09-07T01:04:07.288Z,1008.89
2016-09-07T01:04:29.051Z,1008.99
2016-09-07T01:04:53.713Z,1008.87
2016-09-07T01:05:16.472Z,1009.14
2016-09-07T01:05:38.202Z,1009.02
2016-09-07T01:05:59.950Z,1009.13
2016-09-07T01:06:21.716Z,1009.07
2016-09-07T01:06:43.451Z,1008.98
2016-09-07T01:07:09.985Z,1009.02
2016-09-07T01:07:35.547Z,1008.95
2016-09-07T01:07:57.428Z,1009.10
2016-09-07T01:08:19.374Z,1009.09
2016-09-07T01:08:41.304Z,1009.19
2016-09-07T01:09:08.622Z,1009.15
2016-09-07T01:09:31.480Z,1008.96
2016-09-07T01:09:53.213Z,1008.94
2016-09-07T01:10:15.118Z,1008.86
2016-09-07T01:11:42.782Z,1008.89
2016-09-07T01:12:08.692Z,1009.03
2016-09-07T01:12:30.445Z,1008.97
2016-09-07T01:13:24.558Z,1008.95
2016-09-07T01:13:46.298Z,1008.94
2016-09-07T01:14:09.073Z,1008.87
2016-09-07T01:14:36.577Z,1008.91
2016-09-07T01:14:58.312Z,1008.83
2016-09-07T01:15:20.070Z,1008.92
2016-09-07T01:15:47.588Z,1008.89
2016-09-07T01:16:18.875Z,1008.82
2016-09-07T01:17:12.107Z,1009.14
2016-09-07T01:17:33.831Z,1009.08
2016-09-07T01:17:55.592Z,1008.90
2016-09-07T01:18:17.397Z,1008.79
2016-09-07T01:18:41.976Z,1009.05
2016-09-07T01:19:03.706Z,1008.96
2016-09-07T01:19:34.983Z,1008.80
2016-09-07T01:19:56.743Z,1009.05
2016-09-07T01:20:23.249Z,1008.83
2016-09-07T01:20:47.762Z,1008.91
2016-09-07T01:21:09.688Z,1008.90
2016-09-07T01:21:31.524Z,1008.83
2016-09-07T01:21:58.068Z,1008.85
2016-09-07T01:22:20.088Z,1008.90
2016-09-07T01:22:41.835Z,1008.90
2016-09-07T01:23:03.576Z,1008.92
2016-09-07T01:23:25.346Z,1008.93
2016-09-07T01:23:51.841Z,1009.02
2016-09-07T01:24:16.251Z,1008.78
2016-09-07T01:24:37.979Z,1008.74
2016-09-07T01:25:00.712Z,1008.87
2016-09-07T01:25:23.487Z,1008.85
2016-09-07T01:25:49.993Z,1009.12
2016-09-07T01:26:11.711Z,1008.88
2016-09-07T01:26:36.231Z,1008.98
2016-09-07T01:26:57.972Z,1009.08
2016-09-07T01:27:19.720Z,1008.82
2016-09-07T01:27:41.460Z,1008.89
2016-09-07T01:28:03.279Z,1008.83
2016-09-07T01:28:30.821Z,1009.00
2016-09-07T01:28:53.659Z,1008.96
2016-09-07T01:29:18.193Z,1008.79
2016-09-07T01:29:40.094Z,1008.97
2016-09-07T01:30:28.331Z,1008.85
2016-09-07T01:30:50.142Z,1008.80
2016-09-07T01:31:16.635Z,1008.82
2016-09-07T01:31:43.134Z,1008.97
2016-09-07T01:32:09.647Z,1008.94
2016-09-07T01:32:37.141Z,1008.86
2016-09-07T01:32:58.913Z,1008.97
2016-09-07T01:33:25.436Z,1009.09
2016-09-07T01:33:51.960Z,1009.13
2016-09-07T01:34:18.455Z,1008.93
2016-09-07T01:34:40.190Z,1008.90
2016-09-07T01:35:06.744Z,1008.90
2016-09-07T01:35:28.498Z,1009.02
2016-09-07T01:35:51.272Z,1009.10
2016-09-07T01:36:13.010Z,1009.13
2016-09-07T01:36:34.736Z,1008.98
2016-09-07T01:36:56.657Z,1008.93
2016-09-07T01:37:18.524Z,1008.87
2016-09-07T01:37:40.338Z,1008.90
2016-09-07T01:38:03.080Z,1008.90
2016-09-07T01:38:24.824Z,1009.08
2016-09-07T01:38:46.568Z,1008.95
2016-09-07T01:39:08.316Z,1008.97
2016-09-07T01:39:30.075Z,1009.02
2016-09-07T01:39:51.848Z,1009.11
2016-09-07T01:40:18.351Z,1008.85
2016-09-07T01:40:40.088Z,1009.12
2016-09-07T01:41:01.820Z,1008.91
2016-09-07T01:41:23.550Z,1008.78
2016-09-07T01:41:45.292Z,1009.07
2016-09-07T01:42:47.473Z,1008.80
2016-09-07T01:43:09.214Z,1008.74
2016-09-07T01:43:30.929Z,1008.78
2016-09-07T01:43:52.671Z,1008.93
2016-09-07T01:44:19.268Z,1009.10
2016-09-07T01:44:45.752Z,1009.01
2016-09-07T01:45:36.952Z,1008.67
2016-09-07T01:46:06.539Z,1008.69
2016-09-07T01:46:28.284Z,1008.90
2016-09-07T01:46:50.030Z,1009.04
2016-09-07T01:47:11.806Z,1008.87
2016-09-07T01:47:34.623Z,1008.91
2016-09-07T01:47:56.600Z,1008.90
2016-09-07T01:48:18.465Z,1009.01
2016-09-07T01:48:40.270Z,1008.90
2016-09-07T01:49:09.689Z,1008.94
2016-09-07T01:49:31.451Z,1008.86
2016-09-07T01:50:02.725Z,1008.80
2016-09-07T01:50:29.243Z,1008.90
2016-09-07T01:50:51.099Z,1008.91
2016-09-07T01:51:18.593Z,1008.84
2016-09-07T01:51:40.658Z,1008.80
2016-09-07T01:52:05.093Z,1008.89
2016-09-07T01:52:26.875Z,1008.90
2016-09-07T01:52:48.708Z,1009.02
2016-09-07T01:53:44.443Z,1008.87
2016-09-07T01:54:06.283Z,1008.64
2016-09-07T01:54:28.161Z,1008.76
2016-09-07T01:54:50.043Z,1008.77
2016-09-07T01:55:11.837Z,1008.90
2016-09-07T01:55:33.582Z,1008.91
2016-09-07T01:55:55.358Z,1008.73
2016-09-07T01:56:21.858Z,1008.82
2016-09-07T01:56:48.380Z,1008.94
2016-09-07T01:57:10.104Z,1008.73
2016-09-07T01:57:34.390Z,1008.77
2016-09-07T01:57:56.335Z,1008.82
2016-09-07T01:58:27.602Z,1008.81
2016-09-07T01:58:49.339Z,1008.95
2016-09-07T01:59:37.579Z,1008.92
2016-09-07T01:59:59.311Z,1009.04
2016-09-07T02:00:21.039Z,1008.69
2016-09-07T02:00:42.766Z,1008.99
2016-09-07T02:01:33.778Z,1008.92
2016-09-07T02:01:56.524Z,1008.97
2016-09-07T02:02:52.334Z,1008.92
2016-09-07T02:03:14.255Z,1008.77
2016-09-07T02:03:36.146Z,1008.64
2016-09-07T02:04:24.559Z,1008.87
2016-09-07T02:04:49.039Z,1008.69
2016-09-07T02:05:15.551Z,1008.70
2016-09-07T02:05:40.190Z,1008.78
2016-09-07T02:06:02.053Z,1008.81
2016-09-07T02:06:23.804Z,1008.90
2016-09-07T02:06:45.656Z,1008.76
2016-09-07T02:07:07.384Z,1008.79
2016-09-07T02:07:29.131Z,1008.77
2016-09-07T02:07:50.867Z,1008.69
2016-09-07T02:08:12.598Z,1008.71
2016-09-07T02:08:35.336Z,1008.70
2016-09-07T02:08:57.074Z,1008.61
2016-09-07T02:09:19.820Z,1008.73
2016-09-07T02:09:41.557Z,1008.96
2016-09-07T02:10:03.298Z,1008.75
2016-09-07T02:10:25.033Z,1008.82
2016-09-07T02:10:46.763Z,1008.80
2016-09-07T02:11:08.511Z,1008.52
2016-09-07T02:11:30.370Z,1008.74
2016-09-07T02:12:18.630Z,1008.66
2016-09-07T02:12:40.491Z,1008.48
2016-09-07T02:13:06.911Z,1008.75
2016-09-07T02:13:28.651Z,1008.68
2016-09-07T02:13:50.383Z,1008.69
2016-09-07T02:14:43.352Z,1008.55
2016-09-07T02:15:05.188Z,1008.67
2016-09-07T02:15:28.049Z,1008.62
2016-09-07T02:15:49.994Z,1008.70
2016-09-07T02:16:11.975Z,1008.67
2016-09-07T02:16:38.579Z,1008.60
2016-09-07T02:17:00.449Z,1008.58
2016-09-07T02:17:22.350Z,1008.51
2016-09-07T02:17:44.304Z,1008.46
2016-09-07T02:18:07.185Z,1008.67
2016-09-07T02:18:29.052Z,1008.58
2016-09-07T02:18:50.927Z,1008.76
2016-09-07T02:19:12.782Z,1008.68
2016-09-07T02:19:34.666Z,1008.67
2016-09-07T02:19:56.531Z,1008.83
2016-09-07T02:20:18.395Z,1008.56
2016-09-07T02:20:40.257Z,1008.59
2016-09-07T02:21:02.087Z,1008.65
2016-09-07T02:23:02.773Z,1008.44
2016-09-07T02:23:24.662Z,1008.60
2016-09-07T02:23:46.434Z,1008.44
2016-09-07T02:24:08.184Z,1008.55
2016-09-07T02:24:32.805Z,1008.46
2016-09-07T02:24:54.548Z,1008.49
2016-09-07T02:25:16.277Z,1008.73
2016-09-07T02:25:40.165Z,1008.62
2016-09-07T02:26:04.655Z,1008.32
2016-09-07T02:26:26.380Z,1008.68
2016-09-07T02:26:49.132Z,1008.46
2016-09-07T02:27:10.856Z,1008.54
2016-09-07T02:27:32.705Z,1008.55
2016-09-07T02:27:54.437Z,1008.53
2016-09-07T02:28:16.165Z,1008.65
2016-09-07T02:28:40.853Z,1008.58
2016-09-07T02:29:02.575Z,1008.53
2016-09-07T02:29:55.672Z,1008.55
2016-09-07T02:30:20.311Z,1008.61
2016-09-07T02:30:42.043Z,1008.41
2016-09-07T02:31:30.375Z,1008.50
2016-09-07T02:32:47.842Z,1008.47
2016-09-07T02:33:14.350Z,1008.68
2016-09-07T02:33:36.126Z,1008.51
2016-09-07T02:33:57.915Z,1008.54
2016-09-07T02:34:22.261Z,1008.31
2016-09-07T02:34:49.797Z,1008.58
2016-09-07T02:35:11.531Z,1008.32
2016-09-07T02:35:33.268Z,1008.51
2016-09-07T02:35:55.045Z,1008.30
2016-09-07T02:36:21.551Z,1008.50
2016-09-07T02:36:43.272Z,1008.50
2016-09-07T02:37:07.608Z,1008.61
2016-09-07T02:37:29.397Z,1008.62
2016-09-07T02:37:52.200Z,1008.53
2016-09-07T02:39:19.426Z,1008.42
2016-09-07T02:39:41.271Z,1008.51
2016-09-07T02:40:07.775Z,1008.44
2016-09-07T02:40:30.504Z,1008.50
2016-09-07T02:40:54.763Z,1008.47
2016-09-07T02:41:16.597Z,1008.63
2016-09-07T02:42:16.872Z,1008.57
2016-09-07T02:42:38.603Z,1008.63
2016-09-07T02:43:34.257Z,1008.28
2016-09-07T02:43:56.015Z,1008.49
2016-09-07T02:44:17.739Z,1008.62
2016-09-07T02:44:46.953Z,1008.78
2016-09-07T02:45:16.316Z,1008.64
2016-09-07T02:45:38.095Z,1008.55
2016-09-07T02:45:59.839Z,1008.52
2016-09-07T02:46:21.591Z,1008.52
2016-09-07T02:46:43.330Z,1008.29
2016-09-07T02:47:05.059Z,1008.48
2016-09-07T02:47:26.843Z,1008.47
2016-09-07T02:47:48.810Z,1008.83
2016-09-07T02:48:10.626Z,1008.39
2016-09-07T02:48:32.404Z,1008.47
2016-09-07T02:48:54.178Z,1008.43
2016-09-07T02:49:15.919Z,1008.19
2016-09-07T02:49:42.450Z,1008.50
2016-09-07T02:50:04.184Z,1008.30
2016-09-07T02:50:25.935Z,1008.36
2016-09-07T02:50:47.671Z,1008.40
2016-09-07T02:51:09.519Z,1008.37
2016-09-07T02:51:31.253Z,1008.55
2016-09-07T02:51:57.756Z,1008.58
2016-09-07T02:52:19.506Z,1008.67
2016-09-07T02:52:46.014Z,1008.87
2016-09-07T02:53:07.795Z,1008.42
2016-09-07T02:53:29.531Z,1008.12
2016-09-07T02:53:51.279Z,1008.27
2016-09-07T02:54:13.039Z,1008.36
2016-09-07T02:54:34.776Z,1008.44
2016-09-07T02:54:56.510Z,1008.58
2016-09-07T02:55:23.010Z,1008.30
2016-09-07T02:55:48.645Z,1008.13
2016-09-07T02:56:16.143Z,1008.43
2016-09-07T02:56:37.884Z,1008.28
2016-09-07T02:57:01.669Z,1008.47
2016-09-07T02:57:23.436Z,1008.52
2016-09-07T02:57:45.179Z,1008.39
2016-09-07T02:58:06.930Z,1008.31
2016-09-07T02:58:33.435Z,1008.46
2016-09-07T02:58:55.183Z,1008.45
2016-09-07T02:59:43.424Z,1008.70
2016-09-07T03:00:05.147Z,1008.45
2016-09-07T03:00:26.907Z,1008.28
2016-09-07T03:00:49.659Z,1008.70
2016-09-07T03:01:11.394Z,1008.35
2016-09-07T03:02:04.405Z,1008.65
2016-09-07T03:02:26.155Z,1008.52
2016-09-07T03:02:49.915Z,1008.32
2016-09-07T03:03:11.947Z,1008.33
2016-09-07T03:03:38.351Z,1008.33
2016-09-07T03:04:00.213Z,1008.58
2016-09-07T03:04:22.601Z,1008.41
2016-09-07T03:04:49.240Z,1008.32
2016-09-07T03:05:15.755Z,1008.24
2016-09-07T03:05:37.617Z,1008.38
2016-09-07T03:05:59.502Z,1008.33
2016-09-07T03:06:27.043Z,1008.29
2016-09-07T03:06:50.968Z,1008.35
2016-09-07T03:07:15.496Z,1008.33
2016-09-07T03:07:42.047Z,1008.28
2016-09-07T03:08:03.798Z,1008.35
2016-09-07T03:08:25.698Z,1008.41
2016-09-07T03:08:47.471Z,1008.56
2016-09-07T03:09:09.240Z,1008.40
2016-09-07T03:09:31.988Z,1008.39
2016-09-07T03:09:53.890Z,1008.33
2016-09-07T03:10:15.673Z,1008.40
2016-09-07T03:10:38.495Z,1008.12
2016-09-07T03:11:01.275Z,1008.08
2016-09-07T03:11:23.021Z,1008.31
2016-09-07T03:12:20.876Z,1008.33
2016-09-07T03:12:42.610Z,1008.52
2016-09-07T03:13:04.511Z,1008.43
2016-09-07T03:14:02.312Z,1008.33
2016-09-07T03:14:28.824Z,1008.15
2016-09-07T03:15:17.123Z,1008.31
2016-09-07T03:15:39.861Z,1008.30
2016-09-07T03:16:01.625Z,1008.25
2016-09-07T03:16:23.374Z,1008.25
2016-09-07T03:17:47.666Z,1008.33
2016-09-07T03:18:09.407Z,1008.11
2016-09-07T03:18:35.934Z,1008.24
2016-09-07T03:19:36.544Z,1008.72
2016-09-07T03:19:58.316Z,1008.48
2016-09-07T03:20:21.061Z,1008.39
2016-09-07T03:20:42.814Z,1008.21
2016-09-07T03:21:04.587Z,1008.37
2016-09-07T03:21:26.434Z,1008.43
2016-09-07T03:21:50.197Z,1008.15
2016-09-07T03:22:15.871Z,1008.30
2016-09-07T03:22:37.624Z,1008.37
2016-09-07T03:23:04.130Z,1008.39
2016-09-07T03:23:25.925Z,1008.20
2016-09-07T03:23:52.437Z,1008.08
2016-09-07T03:24:16.315Z,1008.38
2016-09-07T03:24:39.089Z,1008.10
2016-09-07T03:25:36.929Z,1008.32
2016-09-07T03:26:01.490Z,1008.34
2016-09-07T03:27:00.272Z,1008.57
2016-09-07T03:27:26.808Z,1008.21
2016-09-07T03:27:54.472Z,1008.40
2016-09-07T03:28:20.927Z,1008.43
2016-09-07T03:28:42.815Z,1008.35
2016-09-07T03:29:09.394Z,1008.56
2016-09-07T03:29:57.836Z,1008.35
2016-09-07T03:30:19.666Z,1008.28
2016-09-07T03:30:41.519Z,1008.46
2016-09-07T03:31:03.369Z,1008.31
2016-09-07T03:31:57.714Z,1008.29
2016-09-07T03:32:19.522Z,1008.19
2016-09-07T03:32:41.486Z,1008.44
2016-09-07T03:33:37.718Z,1008.15
2016-09-07T03:34:02.165Z,1008.34
2016-09-07T03:34:23.931Z,1008.27
2016-09-07T03:35:19.922Z,1008.37
2016-09-07T03:35:56.485Z,1008.28
2016-09-07T03:36:22.849Z,1008.27
2016-09-07T03:37:12.166Z,1008.27
2016-09-07T03:37:35.100Z,1008.52
2016-09-07T03:37:58.201Z,1008.25
2016-09-07T03:38:24.734Z,1008.25
2016-09-07T03:38:51.240Z,1008.63
2016-09-07T03:39:15.887Z,1008.23
2016-09-07T03:39:42.459Z,1008.24
2016-09-07T03:40:30.738Z,1008.06
2016-09-07T03:40:53.512Z,1008.08
2016-09-07T03:41:15.319Z,1008.18
2016-09-07T03:42:08.313Z,1008.41
2016-09-07T03:42:30.098Z,1008.35
2016-09-07T03:43:22.936Z,1008.16
2016-09-07T03:43:44.683Z,1008.38
2016-09-07T03:44:06.457Z,1008.49
2016-09-07T03:44:29.202Z,1008.50
2016-09-07T03:44:50.997Z,1008.40
2016-09-07T03:45:13.871Z,1008.25
2016-09-07T03:45:40.923Z,1008.19
2016-09-07T03:46:03.685Z,1008.29
2016-09-07T03:46:25.445Z,1008.17
2016-09-07T03:46:51.993Z,1008.47
2016-09-07T03:47:13.747Z,1008.53
2016-09-07T03:47:35.476Z,1008.08
2016-09-07T03:48:02.239Z,1008.23
2016-09-07T03:48:24.005Z,1008.12
2016-09-07T03:49:18.030Z,1008.28
2016-09-07T03:49:39.765Z,1008.17
2016-09-07T03:50:01.762Z,1008.10
2016-09-07T03:50:23.564Z,1008.10
2016-09-07T03:50:47.794Z,1008.34
2016-09-07T03:51:10.498Z,1008.20
2016-09-07T03:51:37.097Z,1008.25
2016-09-07T03:52:03.631Z,1008.10
2016-09-07T03:52:25.512Z,1008.25
2016-09-07T03:52:47.394Z,1008.20
2016-09-07T03:53:10.133Z,1008.30
2016-09-07T03:53:33.010Z,1008.23
2016-09-07T03:54:30.802Z,1008.04
2016-09-07T03:54:52.546Z,1007.85
2016-09-07T03:55:17.106Z,1008.23
2016-09-07T03:55:41.442Z,1007.97
2016-09-07T03:56:06.239Z,1008.11
2016-09-07T03:56:59.279Z,1008.19
2016-09-07T03:57:25.785Z,1008.09
2016-09-07T03:57:52.290Z,1008.25
2016-09-07T03:58:15.020Z,1008.07
2016-09-07T03:58:36.757Z,1008.06
2016-09-07T03:58:58.517Z,1008.22
2016-09-07T03:59:25.141Z,1008.50
2016-09-07T03:59:49.957Z,1008.02
2016-09-07T04:01:00.255Z,1008.13
2016-09-07T04:01:22.008Z,1008.07
2016-09-07T04:02:55.036Z,1007.99
2016-09-07T04:03:22.559Z,1008.19
2016-09-07T04:03:50.056Z,1008.29
2016-09-07T04:04:11.820Z,1007.99
2016-09-07T04:04:40.626Z,1008.23
2016-09-07T04:05:09.970Z,1008.39
2016-09-07T04:05:36.475Z,1008.22
2016-09-07T04:06:00.229Z,1008.27
2016-09-07T04:06:22.984Z,1008.10
2016-09-07T04:06:50.847Z,1008.07
2016-09-07T04:07:12.658Z,1007.87
2016-09-07T04:07:35.762Z,1007.96
2016-09-07T04:08:05.340Z,1008.00
2016-09-07T04:08:27.129Z,1008.07
2016-09-07T04:08:48.872Z,1008.13
2016-09-07T04:09:44.514Z,1008.12
2016-09-07T04:11:06.741Z,1008.13
2016-09-07T04:11:36.150Z,1008.31
2016-09-07T04:11:58.914Z,1008.35
2016-09-07T04:12:23.324Z,1008.21
2016-09-07T04:13:18.990Z,1007.94
2016-09-07T04:13:46.140Z,1007.97
2016-09-07T04:14:15.135Z,1007.99
2016-09-07T04:14:44.518Z,1008.16
2016-09-07T04:15:06.287Z,1008.37
2016-09-07T04:15:30.034Z,1008.12
2016-09-07T04:15:57.526Z,1008.05
2016-09-07T04:16:19.317Z,1008.15
2016-09-07T04:16:50.591Z,1008.03
2016-09-07T04:17:12.319Z,1008.14
2016-09-07T04:17:35.045Z,1008.02
2016-09-07T04:17:56.914Z,1008.06
2016-09-07T04:18:18.697Z,1008.28
2016-09-07T04:18:43.400Z,1008.43
2016-09-07T04:19:11.765Z,1008.44
2016-09-07T04:19:33.496Z,1008.33
2016-09-07T04:19:55.228Z,1008.31
2016-09-07T04:20:21.733Z,1007.96
2016-09-07T04:20:56.111Z,1008.06
2016-09-07T04:21:17.903Z,1008.24
2016-09-07T04:21:44.229Z,1007.89
2016-09-07T04:22:05.967Z,1008.06
2016-09-07T04:22:27.717Z,1008.01
2016-09-07T04:22:49.458Z,1008.03
2016-09-07T04:23:15.951Z,1008.05
2016-09-07T04:23:37.676Z,1008.03
2016-09-07T04:23:59.403Z,1008.14
2016-09-07T04:24:23.621Z,1008.07
2016-09-07T04:24:50.050Z,1008.32
2016-09-07T04:25:13.782Z,1008.47
2016-09-07T04:25:39.135Z,1008.03
2016-09-07T04:26:00.840Z,1008.42
2016-09-07T04:26:25.304Z,1008.38
2016-09-07T04:26:49.625Z,1008.34
2016-09-07T04:27:15.356Z,1008.24
2016-09-07T04:27:39.775Z,1008.18
2016-09-07T04:28:07.097Z,1008.02
2016-09-07T04:28:28.690Z,1008.12
2016-09-07T04:28:55.762Z,1007.95
2016-09-07T04:29:22.139Z,1007.96
2016-09-07T04:29:44.879Z,1008.05
2016-09-07T04:30:11.385Z,1008.17
2016-09-07T04:30:38.552Z,1008.11
2016-09-07T04:31:00.322Z,1008.10
2016-09-07T04:31:53.350Z,1008.23
2016-09-07T04:32:17.494Z,1008.27
2016-09-07T04:32:39.267Z,1008.19
2016-09-07T04:33:03.621Z,1008.59
2016-09-07T04:33:28.127Z,1008.41
2016-09-07T04:33:49.903Z,1008.21
2016-09-07T04:34:11.644Z,1008.26
2016-09-07T04:34:41.065Z,1008.37
2016-09-07T04:35:02.754Z,1008.33
2016-09-07T04:35:24.478Z,1008.27
2016-09-07T04:35:50.997Z,1008.11
2016-09-07T04:36:17.494Z,1007.78
2016-09-07T04:36:42.047Z,1007.82
2016-09-07T04:37:04.803Z,1008.10
2016-09-07T04:37:32.299Z,1008.25
2016-09-07T04:37:59.349Z,1008.13
2016-09-07T04:38:21.138Z,1008.58
2016-09-07T04:38:53.501Z,1008.37
2016-09-07T04:39:17.868Z,1008.50
2016-09-07T04:39:44.203Z,1008.22
2016-09-07T04:40:10.701Z,1008.01
2016-09-07T04:40:34.681Z,1008.39
2016-09-07T04:41:01.187Z,1008.19
2016-09-07T04:41:26.328Z,1007.94
2016-09-07T04:41:58.373Z,1007.93
2016-09-07T04:42:22.156Z,1007.98
2016-09-07T04:42:43.896Z,1007.93
2016-09-07T04:43:09.904Z,1008.44
2016-09-07T04:43:44.792Z,1008.52
2016-09-07T04:44:06.475Z,1008.18
2016-09-07T04:44:35.430Z,1007.99
2016-09-07T04:45:06.674Z,1008.24
2016-09-07T04:45:33.170Z,1008.39
2016-09-07T04:45:58.540Z,1008.37
2016-09-07T04:46:21.327Z,1008.32
2016-09-07T04:46:45.526Z,1008.41
2016-09-07T04:47:34.975Z,1008.16
2016-09-07T04:47:56.828Z,1008.18
2016-09-07T04:48:18.569Z,1008.29
2016-09-07T04:48:40.290Z,1008.05
2016-09-07T04:49:02.011Z,1008.40
2016-09-07T04:49:23.730Z,1008.29
2016-09-07T04:49:45.452Z,1008.08
2016-09-07T04:50:07.212Z,1008.14
2016-09-07T04:50:28.943Z,1008.39
2016-09-07T04:50:50.671Z,1008.18
2016-09-07T04:51:12.405Z,1008.10
2016-09-07T04:51:34.158Z,1008.22
2016-09-07T04:51:55.867Z,1008.48
2016-09-07T04:52:17.580Z,1008.59
2016-09-07T04:52:39.304Z,1008.46
2016-09-07T04:53:01.017Z,1008.08
2016-09-07T04:53:22.736Z,1008.04
2016-09-07T04:53:44.446Z,1008.24
2016-09-07T04:54:06.162Z,1007.96
2016-09-07T04:54:27.884Z,1008.35
2016-09-07T04:54:49.596Z,1008.64
2016-09-07T04:55:11.344Z,1008.28
2016-09-07T04:55:33.061Z,1008.22
2016-09-07T04:55:54.790Z,1008.64
2016-09-07T04:56:16.508Z,1008.54
2016-09-07T04:56:38.233Z,1008.26
2016-09-07T04:56:59.947Z,1008.18
2016-09-07T04:57:24.677Z,1008.05
2016-09-07T04:57:46.415Z,1007.98
2016-09-07T04:58:12.775Z,1008.04
2016-09-07T04:58:41.971Z,1008.14
2016-09-07T04:59:03.727Z,1008.18
2016-09-07T04:59:26.555Z,1008.24
2016-09-07T04:59:51.235Z,1008.03
2016-09-07T05:00:22.639Z,1008.16
2016-09-07T05:00:49.151Z,1008.56
2016-09-07T05:01:41.260Z,1008.27
2016-09-07T05:02:36.971Z,1008.29
2016-09-07T05:02:59.865Z,1008.37
2016-09-07T05:03:21.605Z,1008.24
2016-09-07T05:03:44.382Z,1008.23
2016-09-07T05:04:43.043Z,1008.29
2016-09-07T05:05:08.463Z,1008.34
2016-09-07T05:05:31.375Z,1008.41
2016-09-07T05:05:57.973Z,1008.19
2016-09-07T05:06:24.482Z,1008.32
2016-09-07T05:07:13.558Z,1008.68
2016-09-07T05:07:36.281Z,1008.18
2016-09-07T05:07:58.006Z,1008.35
2016-09-07T05:09:24.281Z,1008.64
2016-09-07T05:09:46.031Z,1008.55
2016-09-07T05:10:12.533Z,1008.55
2016-09-07T05:10:34.283Z,1008.46
2016-09-07T05:11:00.841Z,1008.44
2016-09-07T05:11:27.387Z,1008.48
2016-09-07T05:11:49.167Z,1008.53
2016-09-07T05:12:23.033Z,1008.45
2016-09-07T05:12:44.799Z,1008.20
2016-09-07T05:13:13.952Z,1008.05
2016-09-07T05:13:35.685Z,1008.30
2016-09-07T05:14:02.879Z,1008.63
2016-09-07T05:14:25.698Z,1008.30
2016-09-07T05:15:18.722Z,1008.38
2016-09-07T05:15:40.488Z,1008.33
2016-09-07T05:16:33.490Z,1008.39
2016-09-07T05:16:57.864Z,1008.66
2016-09-07T05:17:19.826Z,1008.45
2016-09-07T05:17:54.069Z,1008.65
2016-09-07T05:18:20.633Z,1008.32
2016-09-07T05:18:42.361Z,1008.20
2016-09-07T05:19:06.940Z,1008.27
2016-09-07T05:19:34.642Z,1008.18
2016-09-07T05:21:08.272Z,1008.46
2016-09-07T05:21:38.588Z,1008.34
2016-09-07T05:22:26.838Z,1008.28
2016-09-07T05:22:48.575Z,1008.29
2016-09-07T05:23:10.307Z,1008.19
2016-09-07T05:23:32.050Z,1008.31
2016-09-07T05:23:59.375Z,1008.34
2016-09-07T05:24:23.828Z,1008.52
2016-09-07T05:24:56.236Z,1008.44
2016-09-07T05:25:17.948Z,1008.40
2016-09-07T05:25:39.674Z,1008.14